sensor_id;sensor_type;location;lat;lon;timestamp;P1;durP1;ratioP1;P2;durP2;ratioP2
4424;SDS011;2225;53.568;13.266;2023-02-28T00:01:23;6.50;;;4.10;;
4424;SDS011;2225;53.568;13.266;2023-02-28T00:03:51;8.80;;;4.63;;
4424;SDS011;2225;53.568;13.266;2023-02-28T00:06:18;7.80;;;4.60;;
4424;SDS011;2225;53.568;13.266;2023-02-28T00:08:46;6.73;;;3.97;;
4424;SDS011;2225;53.568;13.266;2023-02-28T00:11:14;6.53;;;3.83;;
4424;SDS011;2225;53.568;13.266;2023-02-28T00:13:43;6.30;;;3.57;;
4424;SDS011;2225;53.568;13.266;2023-02-28T00:16:16;10.67;;;3.97;;
4424;SDS011;2225;53.568;13.266;2023-02-28T00:18:46;9.43;;;3.93;;
4424;SDS011;2225;53.568;13.266;2023-02-28T00:21:14;6.53;;;3.77;;
4424;SDS011;2225;53.568;13.266;2023-02-28T00:23:42;5.77;;;3.43;;
4424;SDS011;2225;53.568;13.266;2023-02-28T00:26:09;9.30;;;3.90;;
4424;SDS011;2225;53.568;13.266;2023-02-28T00:28:38;7.20;;;3.60;;
4424;SDS011;2225;53.568;13.266;2023-02-28T00:31:05;4.83;;;3.57;;
4424;SDS011;2225;53.568;13.266;2023-02-28T00:33:32;5.80;;;3.63;;
4424;SDS011;2225;53.568;13.266;2023-02-28T00:36:06;3.83;;;2.50;;
4424;SDS011;2225;53.568;13.266;2023-02-28T00:38:36;5.90;;;3.27;;
4424;SDS011;2225;53.568;13.266;2023-02-28T00:41:05;6.13;;;3.27;;
4424;SDS011;2225;53.568;13.266;2023-02-28T00:43:33;4.30;;;3.43;;
4424;SDS011;2225;53.568;13.266;2023-02-28T00:46:02;14.23;;;4.33;;
4424;SDS011;2225;53.568;13.266;2023-02-28T00:48:30;11.20;;;4.87;;
4424;SDS011;2225;53.568;13.266;2023-02-28T00:50:57;5.23;;;2.90;;
4424;SDS011;2225;53.568;13.266;2023-02-28T00:53:24;6.90;;;2.77;;
4424;SDS011;2225;53.568;13.266;2023-02-28T00:55:51;14.37;;;3.40;;
4424;SDS011;2225;53.568;13.266;2023-02-28T00:58:18;5.93;;;2.70;;
4424;SDS011;2225;53.568;13.266;2023-02-28T01:00:45;7.53;;;2.77;;
4424;SDS011;2225;53.568;13.266;2023-02-28T01:03:19;3.93;;;3.30;;
4424;SDS011;2225;53.568;13.266;2023-02-28T01:05:47;3.93;;;2.80;;
4424;SDS011;2225;53.568;13.266;2023-02-28T01:08:15;3.77;;;2.70;;
4424;SDS011;2225;53.568;13.266;2023-02-28T01:10:42;4.53;;;3.10;;
4424;SDS011;2225;53.568;13.266;2023-02-28T01:13:09;5.67;;;3.60;;
4424;SDS011;2225;53.568;13.266;2023-02-28T01:15:38;5.37;;;3.43;;
4424;SDS011;2225;53.568;13.266;2023-02-28T01:18:11;5.60;;;3.83;;
4424;SDS011;2225;53.568;13.266;2023-02-28T01:20:38;5.60;;;3.87;;
4424;SDS011;2225;53.568;13.266;2023-02-28T01:23:05;5.77;;;3.00;;
4424;SDS011;2225;53.568;13.266;2023-02-28T01:25:36;6.77;;;3.10;;
4424;SDS011;2225;53.568;13.266;2023-02-28T01:28:03;5.53;;;3.10;;
4424;SDS011;2225;53.568;13.266;2023-02-28T01:30:32;5.70;;;2.97;;
4424;SDS011;2225;53.568;13.266;2023-02-28T01:32:59;5.30;;;3.10;;
4424;SDS011;2225;53.568;13.266;2023-02-28T01:35:26;5.97;;;2.87;;
4424;SDS011;2225;53.568;13.266;2023-02-28T01:37:53;3.63;;;2.57;;
4424;SDS011;2225;53.568;13.266;2023-02-28T01:40:20;4.30;;;3.07;;
4424;SDS011;2225;53.568;13.266;2023-02-28T01:42:47;2.70;;;2.17;;
4424;SDS011;2225;53.568;13.266;2023-02-28T01:47:54;7.53;;;3.83;;
4424;SDS011;2225;53.568;13.266;2023-02-28T01:50:28;9.00;;;3.40;;
4424;SDS011;2225;53.568;13.266;2023-02-28T01:53:00;4.97;;;2.87;;
4424;SDS011;2225;53.568;13.266;2023-02-28T01:55:31;6.30;;;3.20;;
4424;SDS011;2225;53.568;13.266;2023-02-28T01:58:00;5.13;;;3.20;;
4424;SDS011;2225;53.568;13.266;2023-02-28T02:00:30;4.00;;;2.97;;
4424;SDS011;2225;53.568;13.266;2023-02-28T02:03:12;5.00;;;2.80;;
4424;SDS011;2225;53.568;13.266;2023-02-28T02:05:42;3.47;;;2.67;;
4424;SDS011;2225;53.568;13.266;2023-02-28T02:08:15;7.03;;;3.20;;
4424;SDS011;2225;53.568;13.266;2023-02-28T02:10:51;4.40;;;2.97;;
4424;SDS011;2225;53.568;13.266;2023-02-28T02:13:30;3.80;;;2.80;;
4424;SDS011;2225;53.568;13.266;2023-02-28T02:16:52;6.17;;;1.93;;
4424;SDS011;2225;53.568;13.266;2023-02-28T02:19:44;9.20;;;2.70;;
4424;SDS011;2225;53.568;13.266;2023-02-28T02:25:49;4.80;;;2.83;;
4424;SDS011;2225;53.568;13.266;2023-02-28T02:41:16;3.73;;;2.90;;
4424;SDS011;2225;53.568;13.266;2023-02-28T02:44:01;6.00;;;2.60;;
4424;SDS011;2225;53.568;13.266;2023-02-28T02:46:44;6.83;;;2.37;;
4424;SDS011;2225;53.568;13.266;2023-02-28T02:49:21;3.87;;;2.30;;
4424;SDS011;2225;53.568;13.266;2023-02-28T02:51:54;4.53;;;2.63;;
4424;SDS011;2225;53.568;13.266;2023-02-28T02:54:23;8.40;;;3.20;;
4424;SDS011;2225;53.568;13.266;2023-02-28T02:56:57;5.90;;;2.40;;
4424;SDS011;2225;53.568;13.266;2023-02-28T02:59:29;3.83;;;3.17;;
4424;SDS011;2225;53.568;13.266;2023-02-28T03:02:00;8.80;;;4.00;;
4424;SDS011;2225;53.568;13.266;2023-02-28T03:04:33;2.60;;;2.37;;
4424;SDS011;2225;53.568;13.266;2023-02-28T03:07:06;4.20;;;2.60;;
4424;SDS011;2225;53.568;13.266;2023-02-28T03:09:33;5.33;;;2.83;;
4424;SDS011;2225;53.568;13.266;2023-02-28T03:12:01;3.40;;;2.63;;
4424;SDS011;2225;53.568;13.266;2023-02-28T03:20:25;7.97;;;3.47;;
4424;SDS011;2225;53.568;13.266;2023-02-28T03:25:52;7.90;;;3.00;;
4424;SDS011;2225;53.568;13.266;2023-02-28T03:31:21;4.93;;;2.73;;
4424;SDS011;2225;53.568;13.266;2023-02-28T03:34:05;7.53;;;2.90;;
4424;SDS011;2225;53.568;13.266;2023-02-28T03:36:45;3.00;;;2.23;;
4424;SDS011;2225;53.568;13.266;2023-02-28T03:39:27;2.30;;;2.00;;
4424;SDS011;2225;53.568;13.266;2023-02-28T03:42:01;3.03;;;2.70;;
4424;SDS011;2225;53.568;13.266;2023-02-28T03:44:36;6.03;;;3.43;;
4424;SDS011;2225;53.568;13.266;2023-02-28T03:47:10;4.27;;;2.70;;
4424;SDS011;2225;53.568;13.266;2023-02-28T03:49:54;10.80;;;5.20;;
4424;SDS011;2225;53.568;13.266;2023-02-28T03:52:30;6.60;;;4.73;;
4424;SDS011;2225;53.568;13.266;2023-02-28T03:55:03;5.73;;;4.30;;
4424;SDS011;2225;53.568;13.266;2023-02-28T03:57:52;9.63;;;3.77;;
4424;SDS011;2225;53.568;13.266;2023-02-28T04:00:38;8.03;;;3.43;;
4424;SDS011;2225;53.568;13.266;2023-02-28T04:03:12;4.47;;;2.87;;
4424;SDS011;2225;53.568;13.266;2023-02-28T04:05:53;4.90;;;3.13;;
4424;SDS011;2225;53.568;13.266;2023-02-28T04:08:22;4.50;;;2.70;;
4424;SDS011;2225;53.568;13.266;2023-02-28T04:11:35;4.20;;;2.50;;
4424;SDS011;2225;53.568;13.266;2023-02-28T04:13:54;4.43;;;2.40;;
4424;SDS011;2225;53.568;13.266;2023-02-28T04:16:21;4.60;;;2.83;;
4424;SDS011;2225;53.568;13.266;2023-02-28T04:19:00;3.57;;;2.50;;
4424;SDS011;2225;53.568;13.266;2023-02-28T04:21:37;7.20;;;2.40;;
4424;SDS011;2225;53.568;13.266;2023-02-28T04:24:14;3.50;;;1.90;;
4424;SDS011;2225;53.568;13.266;2023-02-28T04:26:49;2.60;;;2.40;;
4424;SDS011;2225;53.568;13.266;2023-02-28T04:29:19;2.50;;;2.17;;
4424;SDS011;2225;53.568;13.266;2023-02-28T04:31:50;8.93;;;3.17;;
4424;SDS011;2225;53.568;13.266;2023-02-28T04:34:20;7.17;;;2.87;;
4424;SDS011;2225;53.568;13.266;2023-02-28T04:36:47;6.00;;;3.07;;
4424;SDS011;2225;53.568;13.266;2023-02-28T04:39:37;3.10;;;2.30;;
4424;SDS011;2225;53.568;13.266;2023-02-28T04:42:04;3.37;;;2.30;;
4424;SDS011;2225;53.568;13.266;2023-02-28T04:44:31;4.30;;;2.33;;
4424;SDS011;2225;53.568;13.266;2023-02-28T04:46:58;3.53;;;2.80;;
4424;SDS011;2225;53.568;13.266;2023-02-28T04:49:25;7.90;;;3.10;;
4424;SDS011;2225;53.568;13.266;2023-02-28T04:51:52;3.27;;;2.80;;
4424;SDS011;2225;53.568;13.266;2023-02-28T04:54:19;4.10;;;3.00;;
4424;SDS011;2225;53.568;13.266;2023-02-28T04:56:46;5.47;;;3.00;;
4424;SDS011;2225;53.568;13.266;2023-02-28T04:59:15;5.27;;;3.20;;
4424;SDS011;2225;53.568;13.266;2023-02-28T05:01:45;6.00;;;3.90;;
4424;SDS011;2225;53.568;13.266;2023-02-28T05:04:14;5.00;;;3.27;;
4424;SDS011;2225;53.568;13.266;2023-02-28T05:06:41;5.63;;;3.47;;
4424;SDS011;2225;53.568;13.266;2023-02-28T05:09:08;3.60;;;3.10;;
4424;SDS011;2225;53.568;13.266;2023-02-28T05:11:37;5.80;;;3.10;;
4424;SDS011;2225;53.568;13.266;2023-02-28T05:14:06;5.97;;;3.57;;
4424;SDS011;2225;53.568;13.266;2023-02-28T05:16:40;4.00;;;2.60;;
4424;SDS011;2225;53.568;13.266;2023-02-28T05:19:06;4.73;;;2.97;;
4424;SDS011;2225;53.568;13.266;2023-02-28T05:21:58;5.63;;;2.87;;
4424;SDS011;2225;53.568;13.266;2023-02-28T05:24:21;5.10;;;2.57;;
4424;SDS011;2225;53.568;13.266;2023-02-28T05:26:52;5.73;;;3.03;;
4424;SDS011;2225;53.568;13.266;2023-02-28T05:29:20;4.30;;;2.83;;
4424;SDS011;2225;53.568;13.266;2023-02-28T05:31:48;2.95;;;2.65;;
4424;SDS011;2225;53.568;13.266;2023-02-28T05:34:15;6.43;;;3.20;;
4424;SDS011;2225;53.568;13.266;2023-02-28T05:36:42;3.05;;;2.58;;
4424;SDS011;2225;53.568;13.266;2023-02-28T05:39:09;4.10;;;2.80;;
4424;SDS011;2225;53.568;13.266;2023-02-28T05:41:42;5.50;;;2.80;;
4424;SDS011;2225;53.568;13.266;2023-02-28T05:44:10;8.60;;;3.30;;
4424;SDS011;2225;53.568;13.266;2023-02-28T05:46:37;9.03;;;3.40;;
4424;SDS011;2225;53.568;13.266;2023-02-28T05:49:04;7.27;;;3.50;;
4424;SDS011;2225;53.568;13.266;2023-02-28T05:51:31;6.47;;;4.23;;
4424;SDS011;2225;53.568;13.266;2023-02-28T05:54:00;7.60;;;4.40;;
4424;SDS011;2225;53.568;13.266;2023-02-28T05:56:28;8.57;;;5.43;;
4424;SDS011;2225;53.568;13.266;2023-02-28T05:58:55;10.93;;;4.57;;
4424;SDS011;2225;53.568;13.266;2023-02-28T06:01:40;14.80;;;5.23;;
4424;SDS011;2225;53.568;13.266;2023-02-28T06:04:14;13.27;;;7.77;;
4424;SDS011;2225;53.568;13.266;2023-02-28T06:06:56;15.73;;;8.93;;
4424;SDS011;2225;53.568;13.266;2023-02-28T06:09:23;11.80;;;6.80;;
4424;SDS011;2225;53.568;13.266;2023-02-28T06:11:51;7.43;;;5.27;;
4424;SDS011;2225;53.568;13.266;2023-02-28T06:14:18;9.57;;;5.63;;
4424;SDS011;2225;53.568;13.266;2023-02-28T06:16:46;8.37;;;4.77;;
4424;SDS011;2225;53.568;13.266;2023-02-28T06:19:13;6.73;;;4.30;;
4424;SDS011;2225;53.568;13.266;2023-02-28T06:21:41;6.53;;;4.10;;
4424;SDS011;2225;53.568;13.266;2023-02-28T06:24:09;6.23;;;4.00;;
4424;SDS011;2225;53.568;13.266;2023-02-28T06:26:36;6.05;;;3.30;;
4424;SDS011;2225;53.568;13.266;2023-02-28T06:29:03;4.90;;;3.20;;
4424;SDS011;2225;53.568;13.266;2023-02-28T06:31:30;6.10;;;4.07;;
4424;SDS011;2225;53.568;13.266;2023-02-28T06:33:57;7.80;;;3.77;;
4424;SDS011;2225;53.568;13.266;2023-02-28T06:36:24;5.33;;;3.30;;
4424;SDS011;2225;53.568;13.266;2023-02-28T06:38:51;4.37;;;2.90;;
4424;SDS011;2225;53.568;13.266;2023-02-28T06:41:21;3.47;;;2.90;;
4424;SDS011;2225;53.568;13.266;2023-02-28T06:43:50;8.20;;;3.30;;
4424;SDS011;2225;53.568;13.266;2023-02-28T06:46:18;5.70;;;2.93;;
4424;SDS011;2225;53.568;13.266;2023-02-28T06:48:45;4.03;;;2.90;;
4424;SDS011;2225;53.568;13.266;2023-02-28T06:51:14;8.33;;;3.23;;
4424;SDS011;2225;53.568;13.266;2023-02-28T06:53:46;6.60;;;3.50;;
4424;SDS011;2225;53.568;13.266;2023-02-28T06:56:14;3.90;;;2.97;;
4424;SDS011;2225;53.568;13.266;2023-02-28T06:58:45;8.23;;;4.10;;
4424;SDS011;2225;53.568;13.266;2023-02-28T07:01:14;16.30;;;8.70;;
4424;SDS011;2225;53.568;13.266;2023-02-28T07:03:42;21.53;;;8.93;;
4424;SDS011;2225;53.568;13.266;2023-02-28T07:06:09;13.93;;;7.53;;
4424;SDS011;2225;53.568;13.266;2023-02-28T07:08:36;9.10;;;5.27;;
4424;SDS011;2225;53.568;13.266;2023-02-28T07:11:03;7.60;;;5.60;;
4424;SDS011;2225;53.568;13.266;2023-02-28T07:13:30;8.33;;;5.17;;
4424;SDS011;2225;53.568;13.266;2023-02-28T07:18:30;10.23;;;4.60;;
4424;SDS011;2225;53.568;13.266;2023-02-28T07:20:57;7.93;;;3.60;;
4424;SDS011;2225;53.568;13.266;2023-02-28T07:23:28;6.00;;;4.13;;
4424;SDS011;2225;53.568;13.266;2023-02-28T07:25:55;9.23;;;4.47;;
4424;SDS011;2225;53.568;13.266;2023-02-28T07:28:22;11.63;;;5.23;;
4424;SDS011;2225;53.568;13.266;2023-02-28T07:30:49;6.30;;;4.10;;
4424;SDS011;2225;53.568;13.266;2023-02-28T07:33:16;6.70;;;3.40;;
4424;SDS011;2225;53.568;13.266;2023-02-28T07:35:43;7.50;;;3.70;;
4424;SDS011;2225;53.568;13.266;2023-02-28T07:38:10;8.87;;;4.40;;
4424;SDS011;2225;53.568;13.266;2023-02-28T07:40:39;9.13;;;4.30;;
4424;SDS011;2225;53.568;13.266;2023-02-28T07:43:06;8.40;;;4.47;;
4424;SDS011;2225;53.568;13.266;2023-02-28T07:45:33;8.03;;;4.70;;
4424;SDS011;2225;53.568;13.266;2023-02-28T07:48:01;8.47;;;4.73;;
4424;SDS011;2225;53.568;13.266;2023-02-28T07:50:28;10.53;;;5.20;;
4424;SDS011;2225;53.568;13.266;2023-02-28T07:52:59;11.87;;;4.80;;
4424;SDS011;2225;53.568;13.266;2023-02-28T07:55:26;12.60;;;6.73;;
4424;SDS011;2225;53.568;13.266;2023-02-28T07:57:53;19.70;;;5.80;;
4424;SDS011;2225;53.568;13.266;2023-02-28T08:00:20;15.20;;;7.10;;
4424;SDS011;2225;53.568;13.266;2023-02-28T08:02:48;11.83;;;6.30;;
4424;SDS011;2225;53.568;13.266;2023-02-28T08:05:15;23.17;;;7.03;;
4424;SDS011;2225;53.568;13.266;2023-02-28T08:07:48;15.37;;;6.10;;
4424;SDS011;2225;53.568;13.266;2023-02-28T08:10:15;21.63;;;12.97;;
4424;SDS011;2225;53.568;13.266;2023-02-28T08:12:42;16.17;;;7.97;;
4424;SDS011;2225;53.568;13.266;2023-02-28T08:15:09;12.80;;;6.53;;
4424;SDS011;2225;53.568;13.266;2023-02-28T08:17:36;22.60;;;13.50;;
4424;SDS011;2225;53.568;13.266;2023-02-28T08:20:03;20.80;;;8.27;;
4424;SDS011;2225;53.568;13.266;2023-02-28T08:22:31;11.90;;;5.83;;
4424;SDS011;2225;53.568;13.266;2023-02-28T08:24:58;10.77;;;5.57;;
4424;SDS011;2225;53.568;13.266;2023-02-28T08:27:25;12.93;;;6.00;;
4424;SDS011;2225;53.568;13.266;2023-02-28T08:29:51;8.23;;;4.07;;
4424;SDS011;2225;53.568;13.266;2023-02-28T08:32:18;8.90;;;4.33;;
4424;SDS011;2225;53.568;13.266;2023-02-28T08:34:55;12.03;;;4.37;;
4424;SDS011;2225;53.568;13.266;2023-02-28T08:37:22;17.10;;;5.30;;
4424;SDS011;2225;53.568;13.266;2023-02-28T08:39:49;12.13;;;5.27;;
4424;SDS011;2225;53.568;13.266;2023-02-28T08:42:17;8.57;;;4.57;;
4424;SDS011;2225;53.568;13.266;2023-02-28T08:44:44;7.93;;;4.50;;
4424;SDS011;2225;53.568;13.266;2023-02-28T08:47:11;5.00;;;2.80;;
4424;SDS011;2225;53.568;13.266;2023-02-28T08:49:38;4.90;;;3.10;;
4424;SDS011;2225;53.568;13.266;2023-02-28T08:52:05;6.53;;;3.17;;
4424;SDS011;2225;53.568;13.266;2023-02-28T08:54:32;7.53;;;2.90;;
4424;SDS011;2225;53.568;13.266;2023-02-28T08:57:00;6.43;;;2.70;;
4424;SDS011;2225;53.568;13.266;2023-02-28T08:59:27;4.83;;;3.00;;
4424;SDS011;2225;53.568;13.266;2023-02-28T09:01:54;5.80;;;2.90;;
4424;SDS011;2225;53.568;13.266;2023-02-28T09:04:21;9.73;;;3.23;;
4424;SDS011;2225;53.568;13.266;2023-02-28T09:06:50;5.80;;;3.10;;
4424;SDS011;2225;53.568;13.266;2023-02-28T09:09:17;6.30;;;2.60;;
4424;SDS011;2225;53.568;13.266;2023-02-28T09:11:44;6.33;;;2.73;;
4424;SDS011;2225;53.568;13.266;2023-02-28T09:14:11;5.57;;;2.67;;
4424;SDS011;2225;53.568;13.266;2023-02-28T09:16:38;11.40;;;3.10;;
4424;SDS011;2225;53.568;13.266;2023-02-28T09:19:05;5.47;;;2.40;;
4424;SDS011;2225;53.568;13.266;2023-02-28T09:21:32;3.30;;;2.00;;
4424;SDS011;2225;53.568;13.266;2023-02-28T09:23:59;4.80;;;1.97;;
4424;SDS011;2225;53.568;13.266;2023-02-28T09:26:26;8.27;;;4.13;;
4424;SDS011;2225;53.568;13.266;2023-02-28T09:29:07;8.07;;;2.30;;
4424;SDS011;2225;53.568;13.266;2023-02-28T09:31:35;9.33;;;2.77;;
4424;SDS011;2225;53.568;13.266;2023-02-28T09:34:03;5.97;;;2.03;;
4424;SDS011;2225;53.568;13.266;2023-02-28T09:36:30;9.20;;;2.73;;
4424;SDS011;2225;53.568;13.266;2023-02-28T09:39:09;6.70;;;2.70;;
4424;SDS011;2225;53.568;13.266;2023-02-28T09:41:41;10.03;;;3.20;;
4424;SDS011;2225;53.568;13.266;2023-02-28T09:44:18;8.20;;;2.50;;
4424;SDS011;2225;53.568;13.266;2023-02-28T09:46:59;7.47;;;3.40;;
4424;SDS011;2225;53.568;13.266;2023-02-28T09:49:41;7.83;;;3.13;;
4424;SDS011;2225;53.568;13.266;2023-02-28T09:52:23;11.77;;;3.37;;
4424;SDS011;2225;53.568;13.266;2023-02-28T09:55:18;11.40;;;3.07;;
4424;SDS011;2225;53.568;13.266;2023-02-28T09:58:08;3.60;;;1.80;;
4424;SDS011;2225;53.568;13.266;2023-02-28T10:00:46;8.73;;;1.90;;
4424;SDS011;2225;53.568;13.266;2023-02-28T10:03:25;6.23;;;2.43;;
4424;SDS011;2225;53.568;13.266;2023-02-28T10:06:14;3.53;;;1.40;;
4424;SDS011;2225;53.568;13.266;2023-02-28T10:08:50;4.57;;;1.93;;
4424;SDS011;2225;53.568;13.266;2023-02-28T10:11:27;3.13;;;1.03;;
4424;SDS011;2225;53.568;13.266;2023-02-28T10:13:58;4.60;;;1.23;;
4424;SDS011;2225;53.568;13.266;2023-02-28T10:16:37;4.70;;;1.50;;
4424;SDS011;2225;53.568;13.266;2023-02-28T10:19:24;4.10;;;1.80;;
4424;SDS011;2225;53.568;13.266;2023-02-28T10:22:21;4.90;;;1.60;;
4424;SDS011;2225;53.568;13.266;2023-02-28T10:25:20;4.63;;;1.33;;
4424;SDS011;2225;53.568;13.266;2023-02-28T10:27:54;6.97;;;2.40;;
4424;SDS011;2225;53.568;13.266;2023-02-28T10:30:30;4.83;;;2.00;;
4424;SDS011;2225;53.568;13.266;2023-02-28T10:32:57;5.50;;;2.03;;
4424;SDS011;2225;53.568;13.266;2023-02-28T10:35:25;4.93;;;2.03;;
4424;SDS011;2225;53.568;13.266;2023-02-28T10:37:57;4.60;;;1.57;;
4424;SDS011;2225;53.568;13.266;2023-02-28T10:40:28;8.87;;;1.97;;
4424;SDS011;2225;53.568;13.266;2023-02-28T10:43:05;5.73;;;1.90;;
4424;SDS011;2225;53.568;13.266;2023-02-28T10:45:38;3.93;;;1.70;;
4424;SDS011;2225;53.568;13.266;2023-02-28T10:56:05;6.17;;;1.83;;
4424;SDS011;2225;53.568;13.266;2023-02-28T11:01:46;6.30;;;2.07;;
4424;SDS011;2225;53.568;13.266;2023-02-28T11:06:45;3.80;;;1.40;;
4424;SDS011;2225;53.568;13.266;2023-02-28T11:09:27;6.40;;;1.73;;
4424;SDS011;2225;53.568;13.266;2023-02-28T11:12:06;4.87;;;1.87;;
4424;SDS011;2225;53.568;13.266;2023-02-28T11:14:47;6.40;;;1.90;;
4424;SDS011;2225;53.568;13.266;2023-02-28T11:17:25;6.07;;;1.63;;
4424;SDS011;2225;53.568;13.266;2023-02-28T11:19:56;5.87;;;1.50;;
4424;SDS011;2225;53.568;13.266;2023-02-28T11:22:32;5.37;;;1.00;;
4424;SDS011;2225;53.568;13.266;2023-02-28T11:25:08;4.27;;;1.60;;
4424;SDS011;2225;53.568;13.266;2023-02-28T11:27:46;6.70;;;2.00;;
4424;SDS011;2225;53.568;13.266;2023-02-28T11:30:30;6.10;;;1.70;;
4424;SDS011;2225;53.568;13.266;2023-02-28T11:36:00;4.80;;;1.97;;
4424;SDS011;2225;53.568;13.266;2023-02-28T11:38:34;4.03;;;1.70;;
4424;SDS011;2225;53.568;13.266;2023-02-28T11:47:00;5.80;;;2.20;;
4424;SDS011;2225;53.568;13.266;2023-02-28T11:52:57;13.67;;;2.27;;
4424;SDS011;2225;53.568;13.266;2023-02-28T11:56:10;4.73;;;1.60;;
4424;SDS011;2225;53.568;13.266;2023-02-28T11:59:01;5.40;;;1.70;;
4424;SDS011;2225;53.568;13.266;2023-02-28T12:05:16;6.03;;;1.70;;
4424;SDS011;2225;53.568;13.266;2023-02-28T12:20:12;4.87;;;1.50;;
4424;SDS011;2225;53.568;13.266;2023-02-28T12:23:19;12.20;;;1.60;;
4424;SDS011;2225;53.568;13.266;2023-02-28T12:26:13;6.50;;;1.80;;
4424;SDS011;2225;53.568;13.266;2023-02-28T12:28:54;10.33;;;1.90;;
4424;SDS011;2225;53.568;13.266;2023-02-28T12:31:34;4.50;;;1.93;;
4424;SDS011;2225;53.568;13.266;2023-02-28T12:34:16;4.27;;;1.53;;
4424;SDS011;2225;53.568;13.266;2023-02-28T12:36:48;6.80;;;1.80;;
4424;SDS011;2225;53.568;13.266;2023-02-28T12:39:29;5.63;;;1.53;;
4424;SDS011;2225;53.568;13.266;2023-02-28T12:42:26;5.90;;;1.60;;
4424;SDS011;2225;53.568;13.266;2023-02-28T12:44:57;6.87;;;1.77;;
4424;SDS011;2225;53.568;13.266;2023-02-28T12:47:28;7.87;;;1.87;;
4424;SDS011;2225;53.568;13.266;2023-02-28T12:50:00;3.90;;;1.70;;
4424;SDS011;2225;53.568;13.266;2023-02-28T12:52:47;9.13;;;2.30;;
4424;SDS011;2225;53.568;13.266;2023-02-28T12:55:41;5.23;;;2.10;;
4424;SDS011;2225;53.568;13.266;2023-02-28T13:04:14;4.70;;;1.23;;
4424;SDS011;2225;53.568;13.266;2023-02-28T13:07:24;9.03;;;2.00;;
4424;SDS011;2225;53.568;13.266;2023-02-28T13:10:05;5.20;;;1.70;;
4424;SDS011;2225;53.568;13.266;2023-02-28T13:12:34;5.00;;;1.60;;
4424;SDS011;2225;53.568;13.266;2023-02-28T13:15:04;4.40;;;1.53;;
4424;SDS011;2225;53.568;13.266;2023-02-28T13:17:51;5.20;;;1.60;;
4424;SDS011;2225;53.568;13.266;2023-02-28T13:20:21;7.13;;;1.60;;
4424;SDS011;2225;53.568;13.266;2023-02-28T13:22:52;10.30;;;1.60;;
4424;SDS011;2225;53.568;13.266;2023-02-28T13:27:48;5.80;;;1.70;;
4424;SDS011;2225;53.568;13.266;2023-02-28T13:33:17;5.23;;;1.77;;
4424;SDS011;2225;53.568;13.266;2023-02-28T13:36:09;6.43;;;1.60;;
4424;SDS011;2225;53.568;13.266;2023-02-28T13:38:43;4.33;;;1.40;;
4424;SDS011;2225;53.568;13.266;2023-02-28T13:44:01;5.27;;;1.50;;
4424;SDS011;2225;53.568;13.266;2023-02-28T13:49:18;11.67;;;1.73;;
4424;SDS011;2225;53.568;13.266;2023-02-28T13:54:52;4.53;;;1.63;;
4424;SDS011;2225;53.568;13.266;2023-02-28T14:03:35;6.20;;;1.73;;
4424;SDS011;2225;53.568;13.266;2023-02-28T14:06:38;7.80;;;2.20;;
4424;SDS011;2225;53.568;13.266;2023-02-28T14:09:27;5.07;;;1.73;;
4424;SDS011;2225;53.568;13.266;2023-02-28T14:15:27;5.63;;;1.77;;
4424;SDS011;2225;53.568;13.266;2023-02-28T14:18:16;5.67;;;1.90;;
4424;SDS011;2225;53.568;13.266;2023-02-28T14:20:57;5.67;;;1.90;;
4424;SDS011;2225;53.568;13.266;2023-02-28T14:29:51;3.93;;;1.50;;
4424;SDS011;2225;53.568;13.266;2023-02-28T14:33:04;5.73;;;1.70;;
4424;SDS011;2225;53.568;13.266;2023-02-28T14:38:31;5.57;;;1.70;;
4424;SDS011;2225;53.568;13.266;2023-02-28T14:41:04;3.77;;;1.33;;
4424;SDS011;2225;53.568;13.266;2023-02-28T14:44:19;10.90;;;2.17;;
4424;SDS011;2225;53.568;13.266;2023-02-28T14:46:57;5.87;;;1.73;;
4424;SDS011;2225;53.568;13.266;2023-02-28T14:49:35;4.87;;;1.43;;
4424;SDS011;2225;53.568;13.266;2023-02-28T14:54:38;6.03;;;1.57;;
4424;SDS011;2225;53.568;13.266;2023-02-28T14:57:06;5.10;;;1.17;;
4424;SDS011;2225;53.568;13.266;2023-02-28T15:02:31;3.87;;;1.17;;
4424;SDS011;2225;53.568;13.266;2023-02-28T15:05:10;4.20;;;1.50;;
4424;SDS011;2225;53.568;13.266;2023-02-28T15:08:09;7.27;;;1.60;;
4424;SDS011;2225;53.568;13.266;2023-02-28T15:10:51;4.87;;;1.40;;
4424;SDS011;2225;53.568;13.266;2023-02-28T15:13:26;4.00;;;1.33;;
4424;SDS011;2225;53.568;13.266;2023-02-28T15:16:17;3.23;;;1.33;;
4424;SDS011;2225;53.568;13.266;2023-02-28T15:18:52;5.37;;;1.30;;
4424;SDS011;2225;53.568;13.266;2023-02-28T15:21:32;3.47;;;1.23;;
4424;SDS011;2225;53.568;13.266;2023-02-28T15:24:04;7.20;;;2.43;;
4424;SDS011;2225;53.568;13.266;2023-02-28T15:26:37;5.20;;;1.60;;
4424;SDS011;2225;53.568;13.266;2023-02-28T15:29:07;4.03;;;1.47;;
4424;SDS011;2225;53.568;13.266;2023-02-28T15:31:45;4.60;;;1.77;;
4424;SDS011;2225;53.568;13.266;2023-02-28T15:37:28;3.17;;;1.33;;
4424;SDS011;2225;53.568;13.266;2023-02-28T15:40:04;4.13;;;1.20;;
4424;SDS011;2225;53.568;13.266;2023-02-28T15:45:36;3.30;;;1.30;;
4424;SDS011;2225;53.568;13.266;2023-02-28T15:48:15;4.17;;;1.43;;
4424;SDS011;2225;53.568;13.266;2023-02-28T15:50:56;4.23;;;1.13;;
4424;SDS011;2225;53.568;13.266;2023-02-28T15:56:24;6.57;;;1.40;;
4424;SDS011;2225;53.568;13.266;2023-02-28T15:59:01;4.37;;;1.10;;
4424;SDS011;2225;53.568;13.266;2023-02-28T16:01:32;3.30;;;1.30;;
4424;SDS011;2225;53.568;13.266;2023-02-28T16:04:06;4.00;;;1.07;;
4424;SDS011;2225;53.568;13.266;2023-02-28T16:06:43;4.03;;;1.23;;
4424;SDS011;2225;53.568;13.266;2023-02-28T16:09:15;4.90;;;1.50;;
4424;SDS011;2225;53.568;13.266;2023-02-28T16:11:45;3.90;;;1.47;;
4424;SDS011;2225;53.568;13.266;2023-02-28T16:14:16;3.40;;;1.43;;
4424;SDS011;2225;53.568;13.266;2023-02-28T16:16:48;5.50;;;1.70;;
4424;SDS011;2225;53.568;13.266;2023-02-28T16:19:22;8.43;;;3.53;;
4424;SDS011;2225;53.568;13.266;2023-02-28T16:21:49;4.90;;;1.93;;
4424;SDS011;2225;53.568;13.266;2023-02-28T16:24:17;7.00;;;1.97;;
4424;SDS011;2225;53.568;13.266;2023-02-28T16:26:47;3.17;;;1.10;;
4424;SDS011;2225;53.568;13.266;2023-02-28T16:29:23;3.60;;;1.23;;
4424;SDS011;2225;53.568;13.266;2023-02-28T16:31:56;4.50;;;1.30;;
4424;SDS011;2225;53.568;13.266;2023-02-28T16:34:23;3.93;;;1.60;;
4424;SDS011;2225;53.568;13.266;2023-02-28T16:36:50;3.40;;;1.53;;
4424;SDS011;2225;53.568;13.266;2023-02-28T16:39:17;3.80;;;1.57;;
4424;SDS011;2225;53.568;13.266;2023-02-28T16:41:46;6.37;;;1.80;;
4424;SDS011;2225;53.568;13.266;2023-02-28T16:44:27;12.40;;;1.80;;
4424;SDS011;2225;53.568;13.266;2023-02-28T16:46:56;4.40;;;2.10;;
4424;SDS011;2225;53.568;13.266;2023-02-28T16:49:23;13.23;;;2.13;;
4424;SDS011;2225;53.568;13.266;2023-02-28T16:51:50;5.27;;;1.40;;
4424;SDS011;2225;53.568;13.266;2023-02-28T16:54:17;6.40;;;2.10;;
4424;SDS011;2225;53.568;13.266;2023-02-28T16:56:45;5.57;;;2.03;;
4424;SDS011;2225;53.568;13.266;2023-02-28T16:59:15;5.67;;;2.47;;
4424;SDS011;2225;53.568;13.266;2023-02-28T17:01:48;9.80;;;2.47;;
4424;SDS011;2225;53.568;13.266;2023-02-28T17:04:16;5.70;;;2.70;;
4424;SDS011;2225;53.568;13.266;2023-02-28T17:06:43;6.77;;;2.57;;
4424;SDS011;2225;53.568;13.266;2023-02-28T17:09:20;8.27;;;3.10;;
4424;SDS011;2225;53.568;13.266;2023-02-28T17:11:55;12.30;;;3.70;;
4424;SDS011;2225;53.568;13.266;2023-02-28T17:14:22;13.67;;;6.37;;
4424;SDS011;2225;53.568;13.266;2023-02-28T17:16:50;13.93;;;5.17;;
4424;SDS011;2225;53.568;13.266;2023-02-28T17:19:17;15.17;;;7.77;;
4424;SDS011;2225;53.568;13.266;2023-02-28T17:21:45;17.63;;;7.50;;
4424;SDS011;2225;53.568;13.266;2023-02-28T17:24:12;15.20;;;6.60;;
4424;SDS011;2225;53.568;13.266;2023-02-28T17:26:55;15.07;;;6.20;;
4424;SDS011;2225;53.568;13.266;2023-02-28T17:29:22;23.57;;;10.77;;
4424;SDS011;2225;53.568;13.266;2023-02-28T17:31:50;19.73;;;8.77;;
4424;SDS011;2225;53.568;13.266;2023-02-28T17:34:17;15.23;;;7.40;;
4424;SDS011;2225;53.568;13.266;2023-02-28T17:36:45;22.53;;;10.33;;
4424;SDS011;2225;53.568;13.266;2023-02-28T17:39:14;29.23;;;16.97;;
4424;SDS011;2225;53.568;13.266;2023-02-28T17:41:50;25.63;;;11.50;;